Time;durP1;ratioP1;P1;durP2;ratioP2;P2;SDS_P1;SDS_P2;PMS_P1;PMS_P2;Temp;Humidity;BMP_temperature;BMP_pressure;BME280_temperature;BME280_humidity;BME280_pressure;Samples;Min_cycle;Max_cycle;Signal;HPM_P1;HPM_P2
2022/03/17 00:00:23;;;;;;;27.60;16.67;;;;;;;17.50;82.21;101763.41;5089348;28;20093;-50
2022/03/17 00:02:49;;;;;;;29.07;16.13;;;;;;;17.25;83.68;101758.78;5076517;28;20049;-51
2022/03/17 00:05:14;;;;;;;27.73;16.73;;;;;;;17.11;85.97;101757.22;5079678;28;20495;-50
2022/03/17 00:07:42;;;;;;;26.23;14.63;;;;;;;16.90;88.63;101761.88;5086318;28;20044;-47
2022/03/17 00:10:17;;;;;;;33.93;16.60;;;;;;;16.97;87.47;101761.84;5086857;28;20056;-49
2022/03/17 00:12:45;;;;;;;33.57;16.87;;;;;;;16.98;87.35;101756.25;5090293;28;20297;-48
2022/03/17 00:15:11;;;;;;;29.40;16.67;;;;;;;17.09;86.94;101751.22;5085295;28;20274;-46
2022/03/17 00:17:37;;;;;;;28.50;15.98;;;;;;;17.28;86.99;101754.84;5074989;28;20292;-49
2022/03/17 00:20:07;;;;;;;27.10;16.00;;;;;;;16.90;90.35;101751.88;5073408;28;20197;-51
2022/03/17 00:22:33;;;;;;;28.20;16.57;;;;;;;17.19;87.60;101743.44;5073443;28;20147;-49
2022/03/17 00:24:59;;;;;;;29.80;17.67;;;;;;;16.95;91.69;101770.16;5075938;28;20327;-52
2022/03/17 00:27:24;;;;;;;33.58;17.25;;;;;;;16.93;89.95;101761.44;5073861;28;20051;-52
2022/03/17 00:29:50;;;;;;;28.50;16.63;;;;;;;16.77;93.29;101751.97;5073247;28;20037;-52
2022/03/17 00:32:16;;;;;;;31.08;17.40;;;;;;;17.15;89.73;101753.84;5075009;28;20083;-52
2022/03/17 00:37:26;;;;;;;29.97;17.53;;;;;;;16.86;91.93;101744.44;5080766;28;20085;-51
2022/03/17 00:39:52;;;;;;;28.50;16.27;;;;;;;16.82;92.16;101764.81;5084552;28;20281;-51
2022/03/17 00:42:18;;;;;;;32.70;17.23;;;;;;;17.30;88.35;101761.69;5087609;28;20044;-49
2022/03/17 00:44:44;;;;;;;31.50;17.50;;;;;;;17.13;89.05;101764.06;5077568;28;20297;-47
2022/03/17 00:47:09;;;;;;;30.67;16.38;;;;;;;17.02;90.62;101765.56;5090069;28;20059;-48
2022/03/17 00:49:35;;;;;;;29.60;17.70;;;;;;;16.84;91.64;101757.31;5081155;28;20040;-49
2022/03/17 00:52:00;;;;;;;30.20;16.10;;;;;;;16.88;92.25;101764.78;5082135;28;20037;-50
2022/03/17 00:54:26;;;;;;;31.73;17.60;;;;;;;16.87;92.10;101765.00;5088741;28;20136;-52
2022/03/17 00:56:52;;;;;;;31.75;17.02;;;;;;;16.84;94.69;101758.16;5077539;28;20041;-47
2022/03/17 00:59:18;;;;;;;29.63;17.10;;;;;;;16.91;93.58;101763.53;5078737;28;20033;-52
2022/03/17 01:01:43;;;;;;;34.33;17.40;;;;;;;17.00;92.19;101766.84;5081950;28;20108;-51
2022/03/17 01:04:09;;;;;;;29.00;16.57;;;;;;;17.44;86.33;101758.88;5081631;28;20051;-51
2022/03/17 01:06:34;;;;;;;30.13;17.67;;;;;;;17.14;91.32;101763.00;5089854;28;20100;-47
2022/03/17 01:08:59;;;;;;;29.03;16.23;;;;;;;16.94;92.83;101765.81;5077438;28;20048;-48
2022/03/17 01:11:25;;;;;;;33.03;17.67;;;;;;;17.28;90.14;101763.75;5088024;28;20273;-51
2022/03/17 01:13:50;;;;;;;27.77;15.90;;;;;;;16.93;93.66;101761.44;5083925;28;20045;-49
2022/03/17 01:16:15;;;;;;;31.07;16.17;;;;;;;17.02;94.36;101757.47;5080447;28;20057;-51
2022/03/17 01:18:41;;;;;;;28.30;16.23;;;;;;;17.26;91.05;101754.22;5090516;28;20032;-50
2022/03/17 01:21:07;;;;;;;31.33;18.20;;;;;;;17.32;92.28;101753.34;5077254;28;20048;-48
2022/03/17 01:23:32;;;;;;;33.50;17.20;;;;;;;17.28;93.10;101762.94;5086976;28;20068;-49
2022/03/17 01:25:58;;;;;;;32.85;16.15;;;;;;;17.52;88.95;101760.50;5084367;28;20041;-50
2022/03/17 01:28:23;;;;;;;33.73;18.97;;;;;;;17.24;93.46;101759.84;5079744;28;20048;-48
2022/03/17 01:30:49;;;;;;;40.17;18.47;;;;;;;17.44;92.41;101761.59;5089385;28;20051;-51
2022/03/17 01:33:14;;;;;;;31.08;18.08;;;;;;;17.28;95.27;101760.25;5078406;28;20029;-51
2022/03/17 01:35:39;;;;;;;32.63;17.23;;;;;;;17.41;94.02;101756.63;5085788;28;20116;-51
2022/03/17 01:38:05;;;;;;;29.67;15.90;;;;;;;17.46;92.76;101759.47;5085345;28;20040;-52
2022/03/17 01:40:30;;;;;;;27.93;16.47;;;;;;;17.25;93.37;101763.38;5078523;28;20068;-50
2022/03/17 01:42:56;;;;;;;31.60;17.83;;;;;;;17.30;93.83;101759.00;5090002;28;20028;-48
2022/03/17 01:45:21;;;;;;;27.63;15.87;;;;;;;17.00;98.65;101773.06;5079463;28;20037;-52
2022/03/17 01:47:46;;;;;;;31.13;17.25;;;;;;;17.42;94.12;101761.81;5084721;28;20116;-49
2022/03/17 01:50:14;;;;;;;34.80;17.13;;;;;;;17.16;97.19;101762.81;5084922;28;20074;-51
2022/03/17 01:52:40;;;;;;;31.63;16.40;;;;;;;17.35;95.16;101752.91;5073479;28;20047;-48
2022/03/17 01:55:07;;;;;;;32.13;16.90;;;;;;;17.62;93.17;101756.25;5089359;28;20281;-53
2022/03/17 01:57:33;;;;;;;36.63;18.67;;;;;;;17.62;97.03;101756.25;5080539;28;20028;-51
2022/03/17 01:59:59;;;;;;;35.23;17.90;;;;;;;17.31;100.00;101763.34;5082991;28;20301;-49
2022/03/17 02:02:25;;;;;;;34.17;18.43;;;;;;;17.10;100.00;101763.69;5091184;28;20040;-53
2022/03/17 02:04:51;;;;;;;35.10;19.30;;;;;;;17.18;100.00;101766.13;5080681;28;20309;-50
2022/03/17 02:07:19;;;;;;;34.55;19.13;;;;;;;17.28;100.00;101766.47;5091851;28;20025;-50
2022/03/17 02:09:46;;;;;;;37.80;19.17;;;;;;;17.34;100.00;101768.31;5085664;28;20033;-51
2022/03/17 02:15:03;;;;;;;37.30;18.90;;;;;;;17.37;100.00;101758.91;5093395;28;20032;-51
2022/03/17 02:17:31;;;;;;;36.67;17.80;;;;;;;17.46;100.00;101759.47;5083134;28;20273;-50
2022/03/17 02:20:01;;;;;;;31.43;18.70;;;;;;;17.58;100.00;101763.16;5086798;28;20312;-52
2022/03/17 02:22:28;;;;;;;33.20;17.90;;;;;;;17.14;100.00;101765.72;5078628;28;20291;-48
2022/03/17 02:27:41;;;;;;;29.67;16.43;;;;;;;17.29;100.00;101768.13;5074197;28;20276;-52
2022/03/17 02:30:09;;;;;;;39.83;18.73;;;;;;;17.32;100.00;101764.16;5075975;28;20277;-52
2022/03/17 02:32:34;;;;;;;33.90;18.30;;;;;;;17.16;100.00;101770.91;5073366;28;20274;-52
2022/03/17 02:35:11;;;;;;;36.00;19.42;;;;;;;16.93;100.00;101769.56;5075273;28;20348;-51
2022/03/17 02:37:37;;;;;;;30.58;17.10;;;;;;;17.12;100.00;101772.41;5073734;28;20052;-49
2022/03/17 02:40:06;;;;;;;31.02;17.83;;;;;;;17.10;100.00;101771.78;5075746;28;20025;-49
2022/03/17 02:42:32;;;;;;;32.70;17.37;;;;;;;17.29;100.00;101768.13;5075372;28;20032;-51
2022/03/17 02:44:59;;;;;;;39.70;20.27;;;;;;;17.03;100.00;101769.13;5075554;28;20353;-48
2022/03/17 02:47:24;;;;;;;43.33;22.23;;;;;;;17.02;100.00;101779.09;5075731;28;20037;-50
2022/03/17 02:49:52;;;;;;;41.88;21.63;;;;;;;17.12;100.00;101783.22;5074527;28;20289;-46
2022/03/17 02:52:19;;;;;;;46.37;23.07;;;;;;;17.10;100.00;101794.22;5075225;28;20131;-50
2022/03/17 02:54:44;;;;;;;44.97;21.77;;;;;;;17.53;100.00;101791.91;5075215;28;20288;-50
2022/03/17 02:57:10;;;;;;;37.63;20.60;;;;;;;17.27;100.00;101815.34;5075451;28;20318;-50
2022/03/17 02:59:35;;;;;;;43.07;22.00;;;;;;;16.99;100.00;101809.25;5075400;28;20041;-49
2022/03/17 03:02:04;;;;;;;39.47;19.90;;;;;;;16.80;100.00;101826.31;5075344;28;20051;-50
2022/03/17 03:04:30;;;;;;;43.10;20.43;;;;;;;16.41;100.00;101828.91;5074488;28;20044;-48
2022/03/17 03:06:55;;;;;;;44.88;21.60;;;;;;;17.38;100.00;101830.06;5075280;28;20273;-50
2022/03/17 03:09:20;;;;;;;45.20;21.93;;;;;;;17.47;100.00;101837.69;5075190;28;20084;-49
2022/03/17 03:11:46;;;;;;;36.17;19.10;;;;;;;16.95;100.00;101828.75;5074659;28;20044;-49
2022/03/17 03:14:12;;;;;;;41.20;19.30;;;;;;;16.55;100.00;101845.91;5084408;28;20043;-50
2022/03/17 03:16:38;;;;;;;46.67;22.50;;;;;;;16.75;100.00;101854.81;5080131;28;20298;-51
2022/03/17 03:19:03;;;;;;;37.77;19.73;;;;;;;17.02;100.00;101852.03;5092339;28;20056;-50
2022/03/17 03:21:29;;;;;;;31.30;17.43;;;;;;;16.69;100.00;101858.38;5081524;28;20075;-49
2022/03/17 03:23:54;;;;;;;30.13;17.83;;;;;;;16.70;100.00;101854.63;5086313;28;20041;-47
2022/03/17 03:26:20;;;;;;;27.27;16.27;;;;;;;16.61;100.00;101864.00;5088505;28;20051;-49
2022/03/17 03:28:45;;;;;;;22.37;11.83;;;;;;;16.54;100.00;101874.81;5079014;28;20052;-50
2022/03/17 03:31:10;;;;;;;13.87;6.53;;;;;;;16.03;100.00;101887.06;5092087;28;20480;-51
2022/03/17 03:33:36;;;;;;;12.40;6.43;;;;;;;16.60;100.00;101889.31;5082492;28;20036;-48
2022/03/17 03:38:46;;;;;;;9.32;4.47;;;;;;;16.45;100.00;101916.53;5091867;28;20109;-49
2022/03/17 03:41:11;;;;;;;;;;;;;;;16.11;100.00;101923.81;5065461;28;20054;-47
2022/03/17 03:43:37;;;;;;;11.13;4.30;;;;;;;16.46;100.00;101935.25;5082313;28;19916;-48
2022/03/17 03:46:02;;;;;;;12.50;4.50;;;;;;;16.72;100.00;101938.13;5084893;28;20052;-49
2022/03/17 03:48:27;;;;;;;11.37;3.60;;;;;;;16.14;100.00;101963.88;5088992;28;20052;-52
2022/03/17 03:50:53;;;;;;;7.17;3.70;;;;;;;16.15;100.00;101957.44;5078690;28;20048;-49
2022/03/17 03:53:18;;;;;;;9.77;4.77;;;;;;;15.64;100.00;101959.56;5090749;28;20044;-50
2022/03/17 03:55:44;;;;;;;7.70;3.77;;;;;;;16.22;100.00;101960.16;5083027;28;20040;-51
2022/03/17 03:58:09;;;;;;;7.40;4.03;;;;;;;16.41;100.00;101970.16;5083694;28;20105;-50
2022/03/17 04:00:34;;;;;;;9.73;4.77;;;;;;;16.44;100.00;101974.28;5089668;28;20277;-51
2022/03/17 04:03:03;;;;;;;11.63;4.50;;;;;;;15.97;100.00;101985.03;5078271;28;20040;-48
2022/03/17 04:05:31;;;;;;;12.85;5.57;;;;;;;16.43;100.00;101989.66;5089112;28;20293;-47
2022/03/17 04:07:56;;;;;;;12.02;4.82;;;;;;;16.37;100.00;101995.88;5074830;28;20037;-49
2022/03/17 04:10:26;;;;;;;11.88;5.00;;;;;;;15.95;100.00;102000.59;5087564;28;20043;-49
2022/03/17 04:12:51;;;;;;;9.55;5.38;;;;;;;16.15;100.00;102009.56;5078167;28;20037;-48
2022/03/17 04:15:17;;;;;;;9.70;4.90;;;;;;;16.37;100.00;102022.03;5090786;28;20037;-49
2022/03/17 04:17:42;;;;;;;12.00;6.00;;;;;;;16.58;100.00;102026.41;5082243;28;20052;-49
2022/03/17 04:20:09;;;;;;;13.27;6.20;;;;;;;16.44;100.00;102039.06;5083464;28;20044;-49
2022/03/17 04:22:34;;;;;;;16.20;6.57;;;;;;;16.30;100.00;102038.22;5087041;28;20053;-48
2022/03/17 04:25:00;;;;;;;16.35;7.50;;;;;;;15.98;100.00;102044.16;5092507;28;20104;-50
2022/03/17 04:27:25;;;;;;;17.17;7.50;;;;;;;16.14;100.00;102053.75;5074092;28;20037;-48
2022/03/17 04:29:51;;;;;;;18.90;9.03;;;;;;;16.11;100.00;102067.66;5083203;28;20036;-47
2022/03/17 04:32:16;;;;;;;19.03;9.00;;;;;;;15.84;100.00;102075.63;5081795;28;20029;-47
2022/03/17 04:34:42;;;;;;;18.40;9.40;;;;;;;16.43;100.00;102089.56;5089357;28;20175;-47
2022/03/17 04:37:07;;;;;;;33.50;10.77;;;;;;;16.46;100.00;102086.44;5076650;28;20047;-47
2022/03/17 04:39:33;;;;;;;22.37;11.17;;;;;;;15.68;100.00;102095.66;5088243;28;20035;-49
2022/03/17 04:41:58;;;;;;;23.63;10.10;;;;;;;16.38;100.00;102100.16;5084026;28;20095;-50
2022/03/17 04:44:24;;;;;;;28.20;10.70;;;;;;;16.37;100.00;102100.34;5080958;28;20290;-50
2022/03/17 04:46:50;;;;;;;22.43;10.60;;;;;;;16.14;100.00;102107.72;5080928;28;20033;-54
2022/03/17 04:49:16;;;;;;;18.48;10.65;;;;;;;15.66;100.00;102113.91;5077506;28;20035;-52
2022/03/17 04:51:41;;;;;;;21.43;8.73;;;;;;;15.37;100.00;102128.44;5075702;28;20047;-47
2022/03/17 04:54:06;;;;;;;22.23;7.63;;;;;;;15.26;100.00;102132.50;5084595;28;20036;-51
2022/03/17 04:56:32;;;;;;;22.63;9.00;;;;;;;15.73;100.00;102138.22;5079802;28;20017;-50
2022/03/17 04:58:57;;;;;;;25.50;6.90;;;;;;;15.36;100.00;102140.22;5090618;28;20261;-47
2022/03/17 05:01:23;;;;;;;18.87;5.60;;;;;;;15.28;100.00;102147.44;5078736;28;20111;-48
2022/03/17 05:03:49;;;;;;;16.73;4.45;;;;;;;15.57;100.00;102161.75;5086022;28;20037;-50
2022/03/17 05:06:15;;;;;;;21.17;4.65;;;;;;;15.37;100.00;102174.25;5085536;28;20052;-52
2022/03/17 05:08:41;;;;;;;20.38;4.18;;;;;;;15.48;100.00;102185.34;5078640;28;20041;-48
2022/03/17 05:11:07;;;;;;;16.67;4.63;;;;;;;15.23;100.00;102193.00;5090439;28;20033;-48
2022/03/17 05:13:33;;;;;;;11.18;4.25;;;;;;;15.43;100.00;102197.72;5078994;28;20123;-51
2022/03/17 05:15:59;;;;;;;13.05;4.03;;;;;;;14.95;100.00;102209.94;5084567;28;20048;-49
2022/03/17 05:18:25;;;;;;;13.15;3.03;;;;;;;15.43;96.72;102217.44;5086677;28;20045;-51
2022/03/17 05:20:50;;;;;;;15.43;3.95;;;;;;;15.95;88.27;102230.72;5077112;28;20068;-50
2022/03/17 05:23:18;;;;;;;13.10;3.30;;;;;;;16.27;85.21;102235.69;5090426;28;20037;-49
2022/03/17 05:25:44;;;;;;;13.40;3.92;;;;;;;16.02;88.17;102236.97;5081011;28;20063;-48
2022/03/17 05:28:11;;;;;;;18.70;4.03;;;;;;;16.30;85.19;102246.91;5082421;28;20085;-51
2022/03/17 05:30:38;;;;;;;14.60;4.13;;;;;;;14.69;100.00;102242.75;5088298;28;20048;-49
2022/03/17 05:33:04;;;;;;;23.27;3.60;;;;;;;14.85;100.00;102252.50;5076931;28;20105;-52
2022/03/17 05:35:30;;;;;;;14.38;3.65;;;;;;;15.00;97.88;102265.94;5089053;28;20047;-51
2022/03/17 05:37:56;;;;;;;12.13;3.13;;;;;;;15.39;93.51;102266.53;5086644;28;20037;-50
2022/03/17 05:40:23;;;;;;;16.27;3.70;;;;;;;15.78;87.78;102278.72;5085197;28;20051;-49
2022/03/17 05:42:54;;;;;;;16.08;4.18;;;;;;;15.70;89.00;102281.56;5093853;28;20028;-50
2022/03/17 05:45:22;;;;;;;18.08;3.38;;;;;;;15.45;87.66;102293.56;5065773;28;20029;-48
2022/03/17 05:47:49;;;;;;;7.80;2.53;;;;;;;14.90;91.05;102299.41;5089649;28;20025;-51
2022/03/17 05:50:18;;;;;;;17.15;2.70;;;;;;;15.45;88.47;102309.72;5088885;28;20044;-51
2022/03/17 05:52:44;;;;;;;11.25;2.85;;;;;;;14.86;87.87;102310.72;5082006;28;20039;-47
2022/03/17 05:55:14;;;;;;;11.57;3.42;;;;;;;15.31;87.52;102322.25;5093852;28;20044;-50
2022/03/17 05:57:42;;;;;;;11.40;2.33;;;;;;;15.61;85.90;102324.81;5083906;28;20033;-50
2022/03/17 06:00:10;;;;;;;12.40;2.17;;;;;;;15.25;89.21;102338.34;5086726;28;20040;-49
2022/03/17 06:02:36;;;;;;;8.02;2.30;;;;;;;15.51;88.68;102339.63;5090515;28;20033;-50
2022/03/17 06:05:07;;;;;;;16.90;2.45;;;;;;;15.70;85.38;102346.28;5080312;28;20030;-46
2022/03/17 06:07:41;;;;;;;16.52;2.72;;;;;;;15.47;91.88;102341.91;5090551;28;20052;-50
2022/03/17 06:10:08;;;;;;;24.92;3.05;;;;;;;15.24;96.32;102351.00;5087288;28;20032;-51
2022/03/17 06:12:34;;;;;;;10.30;2.17;;;;;;;15.19;99.06;102362.31;5082824;28;20049;-48
2022/03/17 06:15:00;;;;;;;8.38;2.40;;;;;;;15.19;99.68;102372.25;5093510;28;20065;-48
2022/03/17 06:17:54;;;;;;;14.55;3.10;;;;;;;14.79;100.00;102369.06;5081208;28;20036;-53
2022/03/17 06:20:21;;;;;;;14.02;2.95;;;;;;;14.66;100.00;102375.88;5084589;28;20036;-51
2022/03/17 06:22:49;;;;;;;13.85;3.38;;;;;;;15.26;100.00;102385.81;5092451;28;20040;-50
2022/03/17 06:25:16;;;;;;;11.52;2.42;;;;;;;14.83;100.00;102384.66;5079786;28;20575;-50
2022/03/17 06:27:45;;;;;;;8.68;2.65;;;;;;;15.43;98.06;102386.41;5089938;28;20033;-51
2022/03/17 06:30:18;;;;;;;15.10;2.80;;;;;;;15.16;100.00;102394.19;5087137;28;20063;-48
2022/03/17 06:32:44;;;;;;;15.75;2.85;;;;;;;15.09;100.00;102393.28;5081364;28;20075;-52
2022/03/17 06:35:15;;;;;;;13.50;2.47;;;;;;;15.65;93.03;102399.94;5093142;28;20062;-50
2022/03/17 06:37:40;;;;;;;17.48;3.28;;;;;;;15.33;94.46;102410.97;5075636;28;20069;-50
2022/03/17 06:40:07;;;;;;;8.85;2.63;;;;;;;15.40;93.93;102416.47;5076966;28;20032;-48
2022/03/17 06:42:33;;;;;;;23.37;2.57;;;;;;;15.52;92.65;102422.19;5076747;28;20060;-47
2022/03/17 06:44:59;;;;;;;17.55;3.60;;;;;;;15.71;87.94;102435.06;5077214;28;20270;-50
2022/03/17 06:47:24;;;;;;;14.07;3.22;;;;;;;15.17;92.78;102438.97;5077446;28;20040;-47
2022/03/17 06:49:51;;;;;;;17.55;2.83;;;;;;;15.61;87.89;102440.75;5077533;28;20041;-52
2022/03/17 06:52:17;;;;;;;21.98;3.15;;;;;;;15.21;90.90;102440.28;5076268;28;20044;-47
2022/03/17 06:54:42;;;;;;;17.85;2.67;;;;;;;15.46;86.21;102459.69;5076758;28;20037;-53
2022/03/17 06:57:07;;;;;;;12.60;2.30;;;;;;;15.83;80.42;102462.38;5076583;28;20044;-50
2022/03/17 06:59:33;;;;;;;15.07;2.13;;;;;;;15.67;83.75;102463.44;5073878;28;20079;-50
2022/03/17 07:01:58;;;;;;;12.60;2.33;;;;;;;16.09;77.44;102466.41;5076602;28;20033;-49
2022/03/17 07:04:23;;;;;;;15.67;2.03;;;;;;;15.87;76.91;102479.03;5076671;28;20075;-51
2022/03/17 07:06:49;;;;;;;16.43;2.93;;;;;;;15.67;80.36;102487.72;5074756;28;20115;-49
2022/03/17 07:09:14;;;;;;;11.07;1.90;;;;;;;15.62;79.21;102485.59;5078214;28;20044;-51
2022/03/17 07:11:40;;;;;;;13.53;2.10;;;;;;;14.77;87.14;102488.59;5076359;28;20066;-47
2022/03/17 07:14:05;;;;;;;12.63;2.03;;;;;;;15.60;81.51;102497.59;5076431;28;20053;-50
2022/03/17 07:16:30;;;;;;;18.93;2.00;;;;;;;15.78;76.49;102506.09;5075912;28;20040;-50
2022/03/17 07:18:57;;;;;;;19.85;3.08;;;;;;;15.64;76.03;102504.28;5074508;28;20083;-51
2022/03/17 07:21:23;;;;;;;17.23;2.43;;;;;;;15.92;73.19;102511.69;5077522;28;20111;-48
2022/03/17 07:23:48;;;;;;;12.40;2.03;;;;;;;15.19;75.99;102509.69;5076185;28;20480;-48
2022/03/17 07:26:13;;;;;;;13.13;1.80;;;;;;;15.99;74.27;102519.88;5076067;28;20523;-48
2022/03/17 07:28:39;;;;;;;10.07;2.37;;;;;;;15.68;74.36;102527.16;5075938;28;20025;-49
2022/03/17 07:31:04;;;;;;;16.50;2.40;;;;;;;14.93;86.57;102540.59;5076342;28;20503;-52
2022/03/17 07:33:32;;;;;;;14.95;2.33;;;;;;;15.04;86.40;102548.25;5075400;28;20025;-52
2022/03/17 07:35:57;;;;;;;;;;;;;;;15.46;81.36;102550.53;5076202;28;20029;-51
2022/03/17 07:38:23;;;;;;;8.50;2.27;;;;;;;16.00;75.72;102551.22;5075493;28;19925;-50
2022/03/17 07:40:48;;;;;;;11.20;2.07;;;;;;;16.16;72.81;102569.88;5075582;28;20040;-51
2022/03/17 07:43:13;;;;;;;9.60;2.00;;;;;;;15.65;79.38;102559.03;5077042;28;20029;-50
2022/03/17 07:45:57;;;;;;;12.90;2.40;;;;;;;15.77;77.43;102568.34;5073246;28;20063;-51
2022/03/17 07:48:46;;;;;;;12.20;2.63;;;;;;;16.00;75.73;102583.59;5064300;28;20058;-49
2022/03/17 07:51:20;;;;;;;10.45;2.63;;;;;;;16.50;71.62;102589.13;5076796;28;20491;-53
2022/03/17 07:53:46;;;;;;;16.80;2.60;;;;;;;16.23;72.02;102588.00;5075310;28;20037;-49
2022/03/17 07:56:12;;;;;;;15.32;1.90;;;;;;;15.96;73.13;102590.41;5074202;28;20109;-51
2022/03/17 07:58:37;;;;;;;;;;;;;;;15.84;74.14;102606.19;5075267;28;20052;-50
2022/03/17 08:01:03;;;;;;;19.90;2.10;;;;;;;16.01;75.04;102612.25;5075995;28;19921;-50
2022/03/17 08:03:28;;;;;;;19.63;2.93;;;;;;;16.00;73.47;102611.41;5076013;28;20044;-48
2022/03/17 08:05:54;;;;;;;6.23;1.83;;;;;;;16.12;72.82;102624.44;5075231;28;20052;-50
2022/03/17 08:08:20;;;;;;;17.17;2.83;;;;;;;16.33;70.92;102626.31;5074109;28;20057;-48
2022/03/17 08:10:45;;;;;;;14.10;2.53;;;;;;;16.55;68.90;102629.03;5074924;28;20108;-51
2022/03/17 08:13:11;;;;;;;15.10;1.83;;;;;;;16.99;65.22;102630.75;5076203;28;20033;-50
2022/03/17 08:15:38;;;;;;;10.88;2.08;;;;;;;16.98;64.60;102639.03;5074870;28;20040;-48
2022/03/17 08:18:04;;;;;;;10.65;1.85;;;;;;;16.22;66.51;102637.63;5073115;28;20029;-53
2022/03/17 08:20:30;;;;;;;7.05;1.83;;;;;;;16.96;64.06;102650.03;5074461;28;20041;-51
2022/03/17 08:22:56;;;;;;;33.00;2.53;;;;;;;16.80;63.55;102643.03;5074083;28;20032;-52
2022/03/17 08:25:21;;;;;;;11.35;1.85;;;;;;;17.26;60.89;102652.59;5076015;28;20069;-48
2022/03/17 08:27:50;;;;;;;13.40;2.78;;;;;;;17.70;57.74;102657.88;5082722;28;20063;-50
2022/03/17 08:30:15;;;;;;;13.33;2.57;;;;;;;17.45;57.79;102669.16;5082803;28;20055;-51
2022/03/17 08:32:41;;;;;;;18.55;2.38;;;;;;;17.34;56.95;102673.25;5075445;28;20297;-52
2022/03/17 08:35:07;;;;;;;9.57;1.77;;;;;;;17.56;56.53;102674.03;5074758;28;20052;-52
2022/03/17 08:37:38;;;;;;;13.15;2.35;;;;;;;17.30;56.59;102691.75;5073914;28;20057;-50
2022/03/17 08:40:05;;;;;;;12.83;2.57;;;;;;;17.19;55.63;102685.00;5073180;28;20045;-50
2022/03/17 08:42:30;;;;;;;16.65;2.58;;;;;;;17.15;57.42;102696.38;5072644;28;20277;-53
2022/03/17 08:44:55;;;;;;;8.40;1.83;;;;;;;17.07;57.21;102700.06;5073373;28;20067;-49
2022/03/17 08:50:05;;;;;;;24.67;2.40;;;;;;;17.24;54.29;102719.53;5073136;28;20036;-47
2022/03/17 08:52:31;;;;;;;16.25;2.65;;;;;;;16.94;54.61;102725.06;5072818;28;20285;-49
2022/03/17 08:54:58;;;;;;;16.98;4.35;;;;;;;16.87;55.62;102729.56;5073546;28;20059;-50
2022/03/17 08:57:23;;;;;;;12.27;1.83;;;;;;;15.96;59.00;102719.91;5073081;28;20074;-53
2022/03/17 08:59:48;;;;;;;10.90;1.90;;;;;;;16.87;56.02;102724.16;5073535;28;20281;-53
2022/03/17 09:02:15;;;;;;;14.63;3.17;;;;;;;17.22;54.19;102729.72;5079747;28;20040;-50
2022/03/17 09:04:41;;;;;;;10.80;2.10;;;;;;;17.53;53.81;102742.06;5074152;28;20069;-54
2022/03/17 09:07:06;;;;;;;17.58;2.92;;;;;;;16.78;54.48;102740.47;5072491;28;20025;-52
2022/03/17 09:09:34;;;;;;;18.80;3.15;;;;;;;17.31;53.98;102747.50;5074368;28;20044;-49
2022/03/17 09:12:04;;;;;;;17.50;2.10;;;;;;;17.53;53.12;102752.03;5076882;28;20059;-47
2022/03/17 09:14:30;;;;;;;22.37;2.87;;;;;;;17.38;52.93;102758.34;5078231;28;20274;-49
2022/03/17 09:16:55;;;;;;;15.70;2.63;;;;;;;17.18;54.33;102769.00;5078065;28;20282;-51
2022/03/17 09:19:21;;;;;;;14.90;2.20;;;;;;;17.63;53.12;102768.75;5078068;28;20276;-51
2022/03/17 09:21:46;;;;;;;24.03;4.10;;;;;;;16.72;55.58;102764.69;5077147;28;20060;-49
2022/03/17 09:24:12;;;;;;;16.10;2.88;;;;;;;17.28;54.77;102772.19;5074567;28;20163;-52
2022/03/17 09:26:37;;;;;;;14.83;2.47;;;;;;;17.17;54.10;102776.25;5076036;28;20037;-51
2022/03/17 09:29:03;;;;;;;11.90;2.57;;;;;;;16.91;56.52;102787.59;5077705;28;20041;-50
2022/03/17 09:31:29;;;;;;;9.23;1.58;;;;;;;16.75;54.33;102788.66;5093683;28;20059;-50
2022/03/17 09:33:55;;;;;;;11.73;3.42;;;;;;;17.11;55.34;102784.31;5085085;28;20037;-51
2022/03/17 09:36:21;;;;;;;12.38;2.40;;;;;;;16.99;55.66;102797.50;5085762;28;20040;-48
2022/03/17 09:41:33;;;;;;;12.53;2.33;;;;;;;16.86;55.11;102800.84;5065176;28;20542;-49
2022/03/17 09:43:59;;;;;;;15.20;2.30;;;;;;;16.81;52.64;102805.97;5088864;28;20274;-47
2022/03/17 09:46:27;;;;;;;12.15;2.17;;;;;;;17.46;51.49;102811.47;5077289;28;20278;-52
2022/03/17 09:48:53;;;;;;;10.00;1.80;;;;;;;17.67;50.54;102810.63;5077472;28;20056;-49
2022/03/17 09:51:25;;;;;;;7.28;1.50;;;;;;;17.25;49.91;102812.31;5078754;28;20289;-51
2022/03/17 09:53:53;;;;;;;10.53;2.40;;;;;;;17.46;50.30;102825.84;5077246;28;20037;-50
2022/03/17 09:56:23;;;;;;;14.00;3.73;;;;;;;17.84;51.32;102827.44;5076301;28;20273;-52
2022/03/17 09:58:53;;;;;;;11.03;2.53;;;;;;;18.01;51.55;102832.56;5076940;28;20292;-54
2022/03/17 10:01:20;;;;;;;7.10;1.50;;;;;;;17.90;48.17;102842.88;5076708;28;20780;-48
2022/03/17 10:03:45;;;;;;;;;;;;;;;17.46;48.98;102844.78;5076315;28;20296;-49
2022/03/17 10:06:11;;;;;;;9.47;2.10;;;;;;;17.67;48.75;102839.56;5075625;28;19916;-50
2022/03/17 10:08:38;;;;;;;7.20;1.70;;;;;;;17.26;50.07;102846.44;5076768;28;20468;-52
2022/03/17 10:11:03;;;;;;;12.07;1.60;;;;;;;18.23;48.17;102851.50;5091802;28;20036;-50
2022/03/17 10:13:29;;;;;;;14.13;1.90;;;;;;;18.26;47.58;102865.44;5076467;28;20277;-53
2022/03/17 10:16:17;;;;;;;10.40;1.87;;;;;;;18.23;47.26;102868.56;5083715;28;20043;-53
2022/03/17 10:18:45;;;;;;;15.03;2.90;;;;;;;19.32;45.42;102870.78;5081881;28;20064;-50
2022/03/17 10:21:17;;;;;;;11.37;2.90;;;;;;;19.22;45.29;102876.59;5073495;28;20282;-50
2022/03/17 10:23:56;;;;;;;8.03;2.03;;;;;;;19.02;46.12;102877.38;5081993;28;20281;-49
2022/03/17 10:26:43;;;;;;;15.10;2.70;;;;;;;19.58;44.83;102886.25;5075658;28;20273;-53
2022/03/17 10:29:19;;;;;;;13.40;2.33;;;;;;;19.26;45.44;102899.56;5076497;28;20278;-50
2022/03/17 10:31:55;;;;;;;12.65;2.15;;;;;;;19.26;45.78;102894.13;5090403;28;20025;-51
2022/03/17 10:34:23;;;;;;;12.17;2.07;;;;;;;19.88;44.13;102896.75;5086931;28;20158;-52
2022/03/17 10:36:49;;;;;;;7.13;1.60;;;;;;;19.73;44.40;102906.97;5081446;28;20292;-51
2022/03/17 10:39:16;;;;;;;11.07;2.00;;;;;;;19.54;44.70;102911.31;5092833;28;20300;-52
2022/03/17 10:41:43;;;;;;;11.10;2.08;;;;;;;20.30;42.79;102918.28;5080450;28;20269;-49
2022/03/17 10:44:13;;;;;;;10.73;2.20;;;;;;;19.41;43.90;102912.13;5087033;28;20041;-51
2022/03/17 10:46:52;;;;;;;11.83;1.63;;;;;;;18.38;45.30;102908.25;5075898;28;20274;-54
2022/03/17 10:49:18;;;;;;;7.53;2.20;;;;;;;18.57;45.52;102922.97;5077810;28;20281;-48
2022/03/17 10:51:44;;;;;;;9.33;2.83;;;;;;;19.94;43.85;102927.69;5090802;28;20274;-51
2022/03/17 10:54:18;;;;;;;10.45;1.65;;;;;;;20.34;42.38;102933.13;5085215;28;20036;-52
2022/03/17 10:57:09;;;;;;;6.83;1.60;;;;;;;21.09;40.33;102938.41;5081408;28;20044;-48
2022/03/17 10:59:39;;;;;;;6.97;2.40;;;;;;;20.18;41.47;102938.97;5064449;28;20288;-49
2022/03/17 11:02:09;;;;;;;10.27;2.43;;;;;;;20.64;40.64;102942.69;5087490;28;20270;-49
2022/03/17 11:04:40;;;;;;;11.47;2.73;;;;;;;19.94;41.21;102935.81;5088441;28;20277;-47
2022/03/17 11:07:10;;;;;;;7.00;2.30;;;;;;;20.51;40.66;102942.72;5078935;28;20345;-50
2022/03/17 11:09:38;;;;;;;10.63;2.83;;;;;;;21.11;40.73;102950.75;5075340;28;20281;-48
2022/03/17 11:12:17;;;;;;;10.50;2.93;;;;;;;21.48;38.82;102942.00;5083761;28;20285;-49
2022/03/17 11:14:47;;;;;;;12.37;3.10;;;;;;;21.90;39.44;102952.44;5081898;28;20282;-50
2022/03/17 11:17:18;;;;;;;13.03;3.97;;;;;;;22.82;38.18;102953.72;5091790;28;20311;-50
2022/03/17 11:19:44;;;;;;;7.20;1.60;;;;;;;23.57;34.91;102965.41;5080962;28;20048;-47
2022/03/17 11:22:13;;;;;;;;;;;;;;;25.28;31.82;102972.09;5086738;28;20052;-49
2022/03/17 11:24:39;;;;;;;11.10;1.60;;;;;;;25.83;29.80;102975.31;5087725;28;19927;-50
2022/03/17 11:27:13;;;;;;;10.18;2.03;;;;;;;26.13;29.23;102979.66;5078896;28;20040;-54
2022/03/17 11:29:45;;;;;;;6.80;1.80;;;;;;;26.26;29.10;102980.41;5073107;28;20127;-49